< < Back
Terminal Aerodrome Forecast


Current Version              Previous Versions:   1  2  3  4  5  6  7  8  9  

Terminal Aerodrome Forecast

643
FTUS42 KGSP 010913 AAB
TAFGSP
TAF AMD
KGSP 010913Z 0109/0206 04006KT 5SM BR OVC023
      TEMPO 0109/0110 -RA
     FM011000 03007KT 5SM -FZRA OVC017
     FM011200 03006KT 5SM -FZRA BR OVC024
     FM011400 04006KT 4SM -RA OVC020
     FM011900 05003KT P6SM OVC017
     FM012200 18003KT P6SM OVC050=

Latest METAR

738
SAUS70 KWBC 012100 RRU
MTRGSP
METAR KGSP 012053Z 00000KT 3SM BR OVC005 06/04 A3038 RMK AO2 SLP292
60001 T00610044 56020


USA.gov is the U.S. government's official web portal to all federal, state and local government web resources and services.